Terminal Aerodrome Forecast
Issued by NWS Sterling, VA

Current Version | Previous Version | Text Only | Print | Product List | Glossary On
Versions: 1 2 3 4 5 6 7 8 9 10 11 12 13 14 15
209
FTUS41 KLWX 242323
TAFMRB
TAF
KMRB 242323Z 2500/2524 17006KT P6SM VCTS BKN050CB
      TEMPO 2500/2501 VRB10G20KT 3SM -TSRA BR
     FM250400 VRB03KT P6SM BKN060
     FM251500 25005KT P6SM SCT100
     FM251600 25006KT P6SM BKN100=

USA.gov is the U.S. government's official web portal to all federal, state and local government web resources and services.